createdAt,value
2023-05-18T00:00:25.172Z,70.00
2023-05-18T00:05:49.583Z,67.16
2023-05-18T00:10:52.678Z,68.21
2023-05-18T00:15:56.011Z,68.76
2023-05-18T00:20:59.266Z,69.94
2023-05-18T00:26:03.240Z,70.70
2023-05-18T00:31:07.476Z,71.35
2023-05-18T00:36:10.787Z,72.29
2023-05-18T00:41:13.818Z,72.56
2023-05-18T00:46:16.762Z,72.84
2023-05-18T00:51:21.539Z,72.86
2023-05-18T00:56:25.168Z,73.25
2023-05-18T01:01:31.206Z,73.35
2023-05-18T01:06:37.844Z,73.80
2023-05-18T01:11:45.054Z,73.73
2023-05-18T01:16:57.113Z,73.70
2023-05-18T01:22:22.496Z,74.13
2023-05-18T01:27:26.223Z,73.85
2023-05-18T01:32:29.370Z,73.79
2023-05-18T01:37:32.354Z,73.93
2023-05-18T01:42:44.962Z,74.22
2023-05-18T01:47:49.386Z,75.36
2023-05-18T01:52:58.447Z,75.58
2023-05-18T01:58:03.509Z,75.84
2023-05-18T02:03:06.885Z,76.46
2023-05-18T02:08:09.862Z,76.19
2023-05-18T02:13:12.835Z,76.19
2023-05-18T02:18:16.859Z,76.27
2023-05-18T02:23:19.881Z,76.20
2023-05-18T02:28:23.440Z,76.35
2023-05-18T02:33:26.758Z,76.03
2023-05-18T02:38:29.914Z,76.22
2023-05-18T02:43:32.965Z,76.43
2023-05-18T02:48:36.038Z,76.76
2023-05-18T02:53:39.037Z,77.54
2023-05-18T02:58:43.994Z,77.88
2023-05-18T03:03:47.552Z,78.28
2023-05-18T03:08:51.542Z,78.43
2023-05-18T03:13:55.074Z,78.91
2023-05-18T03:18:59.383Z,78.99
2023-05-18T03:24:03.750Z,78.74
2023-05-18T03:29:06.754Z,78.68
2023-05-18T03:34:09.755Z,78.84
2023-05-18T03:39:13.267Z,78.41
2023-05-18T03:44:16.478Z,77.68
2023-05-18T03:49:19.494Z,76.78
2023-05-18T03:54:24.215Z,75.24
2023-05-18T03:59:27.342Z,73.01
2023-05-18T04:04:31.373Z,69.54
2023-05-18T04:09:36.632Z,65.80
2023-05-18T04:14:42.527Z,61.61
2023-05-18T04:19:46.432Z,58.07
2023-05-18T04:24:49.440Z,57.16
2023-05-18T04:29:52.453Z,54.89
2023-05-18T04:34:58.831Z,55.17
2023-05-18T04:40:07.942Z,55.72
2023-05-18T04:45:19.320Z,55.03
2023-05-18T04:50:24.098Z,54.93
2023-05-18T04:55:28.565Z,54.57
2023-05-18T05:00:32.504Z,52.98
2023-05-18T05:05:36.032Z,51.97
2023-05-18T05:10:39.060Z,51.83
2023-05-18T05:15:42.309Z,51.98
2023-05-18T05:20:46.064Z,51.97
2023-05-18T05:25:49.374Z,51.32
2023-05-18T05:30:52.596Z,50.22
2023-05-18T05:35:55.901Z,49.82
2023-05-18T05:40:59.313Z,48.08
2023-05-18T05:46:02.528Z,47.81
2023-05-18T05:51:05.638Z,47.65
2023-05-18T05:56:09.093Z,47.56
2023-05-18T06:01:12.574Z,47.05
2023-05-18T06:06:15.992Z,45.69
2023-05-18T06:11:21.352Z,45.49
2023-05-18T06:16:25.689Z,45.56
2023-05-18T06:21:28.900Z,44.02
2023-05-18T06:26:32.645Z,42.90
2023-05-18T06:31:35.745Z,42.73
2023-05-18T06:36:39.261Z,42.15
2023-05-18T06:41:42.567Z,42.00
2023-05-18T06:46:47.751Z,40.76
2023-05-18T06:51:50.835Z,40.63
2023-05-18T06:56:53.792Z,40.90
2023-05-18T07:01:57.026Z,39.97
2023-05-18T07:07:00.294Z,39.06
2023-05-18T07:12:03.582Z,37.45
2023-05-18T07:17:07.195Z,37.07
2023-05-18T07:22:10.309Z,36.28
2023-05-18T07:27:13.417Z,37.33
2023-05-18T07:32:16.768Z,37.25
2023-05-18T07:37:19.937Z,37.70
2023-05-18T07:42:22.946Z,38.58
2023-05-18T07:47:25.970Z,38.85
2023-05-18T07:52:29.184Z,38.90
2023-05-18T07:57:32.275Z,38.81
2023-05-18T08:02:35.433Z,36.90
2023-05-18T08:07:38.823Z,36.53
2023-05-18T08:12:41.908Z,36.17
2023-05-18T08:17:44.977Z,34.60
2023-05-18T08:22:48.131Z,34.38
2023-05-18T08:27:51.440Z,34.89
2023-05-18T08:32:54.689Z,34.59
2023-05-18T08:37:57.862Z,34.99
2023-05-18T08:43:33.572Z,34.48
2023-05-18T08:48:36.925Z,34.14
2023-05-18T08:53:41.199Z,36.24
2023-05-18T08:58:50.648Z,39.20
2023-05-18T09:03:54.463Z,41.91
2023-05-18T09:08:58.710Z,43.01
2023-05-18T09:14:02.337Z,44.21
2023-05-18T09:19:05.680Z,44.82
2023-05-18T09:24:08.951Z,43.68
2023-05-18T09:29:22.682Z,44.10
2023-05-18T09:34:39.027Z,44.58
2023-05-18T09:39:42.441Z,45.07
2023-05-18T09:44:46.471Z,45.18
2023-05-18T09:49:49.582Z,45.17
2023-05-18T09:55:01.024Z,44.56
2023-05-18T10:00:10.651Z,44.06
2023-05-18T10:05:21.550Z,44.53
2023-05-18T10:10:27.843Z,43.39
2023-05-18T10:15:31.111Z,42.35
2023-05-18T10:20:34.869Z,42.05
2023-05-18T10:25:38.636Z,43.50
2023-05-18T10:30:42.737Z,41.22
2023-05-18T10:35:49.440Z,39.61
2023-05-18T10:40:54.951Z,39.24
2023-05-18T10:46:00.922Z,40.05
2023-05-18T10:51:07.316Z,39.50
2023-05-18T10:56:10.912Z,38.92
2023-05-18T11:01:15.519Z,39.76
2023-05-18T11:06:24.586Z,39.25
2023-05-18T11:11:30.844Z,39.16
2023-05-18T11:16:36.082Z,36.29
2023-05-18T11:21:41.975Z,37.40
2023-05-18T11:26:47.077Z,36.82
2023-05-18T11:31:54.565Z,37.06
2023-05-18T11:36:57.891Z,36.85
2023-05-18T11:42:05.693Z,37.16
2023-05-18T11:47:11.950Z,36.44
2023-05-18T11:52:22.378Z,35.18
2023-05-18T11:57:34.459Z,36.10
2023-05-18T12:02:38.366Z,36.09
2023-05-18T12:07:42.861Z,36.34
2023-05-18T12:12:49.474Z,35.72
2023-05-18T12:17:52.707Z,35.91
2023-05-18T12:22:56.547Z,36.93
2023-05-18T12:28:01.397Z,37.11
2023-05-18T12:33:04.784Z,36.44
2023-05-18T12:38:08.048Z,36.53
2023-05-18T12:43:11.239Z,37.40
2023-05-18T12:48:15.260Z,36.21
2023-05-18T12:53:19.206Z,35.89
2023-05-18T12:58:22.417Z,37.02
2023-05-18T13:03:25.617Z,36.86
2023-05-18T13:08:28.951Z,36.90
2023-05-18T13:13:32.354Z,36.59
2023-05-18T13:18:35.499Z,37.00
2023-05-18T13:23:39.598Z,36.71
2023-05-18T13:28:42.599Z,36.62
2023-05-18T13:33:46.230Z,36.76
2023-05-18T13:38:49.435Z,36.73
2023-05-18T13:43:52.432Z,37.39
2023-05-18T13:48:55.454Z,36.42
2023-05-18T13:53:58.661Z,36.40
2023-05-18T13:59:02.290Z,36.68
2023-05-18T14:04:05.490Z,36.53
2023-05-18T14:09:08.500Z,35.27
2023-05-18T14:14:11.504Z,36.30
2023-05-18T14:19:14.593Z,36.01
2023-05-18T14:24:17.817Z,36.19
2023-05-18T14:29:21.051Z,35.50
2023-05-18T14:34:24.041Z,35.34
2023-05-18T14:39:27.136Z,35.00
2023-05-18T14:44:30.000Z,35.65
2023-05-18T14:49:33.366Z,35.09
2023-05-18T14:54:36.879Z,35.24
2023-05-18T14:59:39.894Z,35.76
2023-05-18T15:04:42.998Z,35.83
2023-05-18T15:09:46.005Z,36.75
2023-05-18T15:14:49.416Z,36.57
2023-05-18T15:19:52.322Z,37.35
2023-05-18T15:24:55.532Z,36.02
2023-05-18T15:29:58.540Z,37.08
2023-05-18T15:35:01.489Z,35.57
2023-05-18T15:40:05.701Z,37.82
2023-05-18T15:45:09.606Z,39.38
2023-05-18T15:50:13.754Z,39.00
2023-05-18T15:55:16.762Z,37.57
2023-05-18T16:00:22.521Z,38.00
2023-05-18T16:05:25.534Z,38.90
2023-05-18T16:10:28.672Z,39.61
2023-05-18T16:15:35.951Z,40.71
2023-05-18T16:20:38.952Z,40.80
2023-05-18T16:25:42.369Z,41.59
2023-05-18T16:30:45.473Z,42.27
2023-05-18T16:35:48.596Z,42.77
2023-05-18T16:40:51.590Z,43.56
2023-05-18T16:45:54.852Z,44.10
2023-05-18T16:50:58.014Z,44.53
2023-05-18T16:56:01.577Z,44.78
2023-05-18T17:01:12.634Z,45.33
2023-05-18T17:06:23.205Z,45.51
2023-05-18T17:11:27.040Z,45.71
2023-05-18T17:16:30.558Z,46.83
2023-05-18T17:21:33.867Z,47.42
2023-05-18T17:26:36.893Z,48.02
2023-05-18T17:31:39.932Z,48.78
2023-05-18T17:36:43.097Z,49.67
2023-05-18T17:41:46.312Z,50.42
2023-05-18T17:46:49.740Z,50.65
2023-05-18T17:51:52.975Z,51.14
2023-05-18T17:56:57.032Z,51.64
2023-05-18T18:02:00.115Z,52.26
2023-05-18T18:07:03.701Z,52.94
2023-05-18T18:12:07.264Z,53.41
2023-05-18T18:17:10.438Z,54.03
2023-05-18T18:22:13.669Z,54.48
2023-05-18T18:27:19.887Z,55.05
2023-05-18T18:32:23.100Z,55.60
2023-05-18T18:37:27.478Z,56.15
2023-05-18T18:42:30.987Z,56.68
2023-05-18T18:47:34.285Z,57.08
2023-05-18T18:52:37.311Z,57.67
2023-05-18T18:57:40.416Z,57.98
2023-05-18T19:02:43.585Z,58.30
2023-05-18T19:07:47.044Z,58.58
2023-05-18T19:12:50.171Z,59.16
2023-05-18T19:17:54.145Z,59.11
2023-05-18T19:22:57.406Z,59.17
2023-05-18T19:28:00.719Z,59.20
2023-05-18T19:33:04.042Z,59.06
2023-05-18T19:38:07.144Z,58.78
2023-05-18T19:43:10.240Z,58.91
2023-05-18T19:48:14.259Z,59.09
2023-05-18T19:53:18.095Z,59.38
2023-05-18T19:58:22.023Z,59.53
2023-05-18T20:03:26.613Z,59.60
2023-05-18T20:08:29.777Z,59.56
2023-05-18T20:13:33.168Z,59.64
2023-05-18T20:18:36.457Z,59.65
2023-05-18T20:23:39.833Z,59.77
2023-05-18T20:28:43.153Z,59.82
2023-05-18T20:33:47.063Z,59.97
2023-05-18T20:38:50.389Z,60.14
2023-05-18T20:43:53.995Z,60.25
2023-05-18T20:48:57.209Z,60.29
2023-05-18T20:54:00.200Z,60.20
2023-05-18T20:59:06.122Z,60.28
2023-05-18T21:04:12.491Z,60.29
2023-05-18T21:09:17.625Z,60.28
2023-05-18T21:14:20.740Z,60.35
2023-05-18T21:19:23.773Z,60.45
2023-05-18T21:24:26.965Z,60.55
2023-05-18T21:29:29.968Z,60.77
2023-05-18T21:34:33.199Z,60.48
2023-05-18T21:39:36.484Z,60.74
2023-05-18T21:44:39.501Z,61.13
2023-05-18T21:49:42.821Z,61.30
2023-05-18T21:54:45.928Z,61.16
2023-05-18T21:59:49.139Z,61.26
2023-05-18T22:04:52.156Z,60.95
2023-05-18T22:09:55.149Z,61.17
2023-05-18T22:14:58.364Z,61.17
2023-05-18T22:20:01.391Z,61.29
2023-05-18T22:25:04.593Z,61.22
2023-05-18T22:30:08.830Z,61.34
2023-05-18T22:35:11.821Z,61.21
2023-05-18T22:40:14.840Z,61.31
2023-05-18T22:45:17.830Z,61.58
2023-05-18T22:50:21.562Z,61.67
2023-05-18T22:55:24.657Z,61.49
2023-05-18T23:00:27.782Z,61.73
2023-05-18T23:05:32.867Z,61.77
2023-05-18T23:10:36.558Z,61.77
2023-05-18T23:15:41.709Z,62.05
2023-05-18T23:20:45.335Z,62.01
2023-05-18T23:25:48.333Z,62.41
2023-05-18T23:30:51.339Z,61.98
2023-05-18T23:35:56.496Z,61.64
2023-05-18T23:40:59.610Z,62.22
2023-05-18T23:46:03.351Z,62.19
2023-05-18T23:51:11.201Z,61.66
2023-05-18T23:56:15.412Z,61.78
